Terminal Aerodrome Forecast
Issued by NWS

Current Version | Previous Version | Graphics & Text | Print | Product List | Glossary On
Versions: 1 2 3 4 5 6 7 8 9 10 11 12 13 14 15 16 17 18 19 20 21 22 23 24
000
FTUS41 KILN 271125
TAFLUK
TAF
KLUK 271125Z 2712/2812 00000KT 1/4SM FG VV002
     FM271300 00000KT 5SM BR BKN019 BKN025
     FM271500 16004KT P6SM VCTS SCT025CB BKN100
     FM272200 17005KT P6SM -SHRA VCTS SCT025CB BKN090
     FM280600 00000KT 3SM -SHRA BKN020 OVC025
     FM281000 00000KT 1/2SM -SHRA OVC008=

USA.gov is the U.S. government's official web portal to all federal, state and local government web resources and services.